createdAt,value
2023-05-05T00:01:18.028Z,100944.19
2023-05-05T00:03:44.807Z,100937.84
2023-05-05T00:06:11.572Z,100945.34
2023-05-05T00:08:38.244Z,100950.53
2023-05-05T00:11:04.983Z,100948.38
2023-05-05T00:13:31.733Z,100948.38
2023-05-05T00:15:58.583Z,100947.25
2023-05-05T00:18:25.298Z,100944.41
2023-05-05T00:20:52.467Z,100950.06
2023-05-05T00:23:19.604Z,100944.97
2023-05-05T00:25:46.602Z,100938.88
2023-05-05T00:28:14.398Z,100935.19
2023-05-05T00:30:41.145Z,100941.84
2023-05-05T00:33:07.926Z,100934.22
2023-05-05T00:35:34.850Z,100934.22
2023-05-05T00:38:01.501Z,100929.81
2023-05-05T00:40:28.181Z,100930.94
2023-05-05T00:42:54.952Z,100930.94
2023-05-05T00:45:21.695Z,100942.13
2023-05-05T00:47:50.189Z,100942.53
2023-05-05T00:50:27.019Z,100940.41
2023-05-05T00:52:57.162Z,100928.78
2023-05-05T00:55:23.943Z,100931.06
2023-05-05T00:57:51.115Z,100935.13
2023-05-05T01:00:18.184Z,100932.03
2023-05-05T01:02:45.143Z,100929.03
2023-05-05T01:05:13.524Z,100931.59
2023-05-05T01:07:43.451Z,100927.75
2023-05-05T01:10:20.146Z,100933.84
2023-05-05T01:12:53.423Z,100932.59
2023-05-05T01:15:39.069Z,100940.94
2023-05-05T01:18:14.115Z,100944.59
2023-05-05T01:20:46.145Z,100944.03
2023-05-05T01:23:19.317Z,100944.84
2023-05-05T01:26:06.152Z,100935.34
2023-05-05T01:28:56.749Z,100940.13
2023-05-05T01:31:45.224Z,100939.28
2023-05-05T01:34:15.800Z,100941.25
2023-05-05T01:36:44.900Z,100939.44
2023-05-05T01:39:15.675Z,100942.66
2023-05-05T01:41:45.902Z,100937.50
2023-05-05T01:44:13.929Z,100933.84
2023-05-05T01:46:40.753Z,100939.06
2023-05-05T01:49:08.908Z,100940.88
2023-05-05T01:51:35.782Z,100942.88
2023-05-05T01:54:05.526Z,100944.88
2023-05-05T01:56:32.645Z,100944.03
2023-05-05T01:59:01.399Z,100942.72
2023-05-05T02:01:29.084Z,100942.59
2023-05-05T02:03:59.113Z,100956.31
2023-05-05T02:06:28.435Z,100957.78
2023-05-05T02:08:56.164Z,100967.22
2023-05-05T02:11:23.611Z,100970.88
2023-05-05T02:13:51.359Z,100974.66
2023-05-05T02:16:18.994Z,100973.00
2023-05-05T02:18:47.074Z,100976.59
2023-05-05T02:21:14.957Z,100983.28
2023-05-05T02:23:41.661Z,100973.53
2023-05-05T02:26:09.808Z,100979.28
2023-05-05T02:28:44.278Z,100987.25
2023-05-05T02:31:12.752Z,100984.09
2023-05-05T02:33:40.617Z,100985.09
2023-05-05T02:36:13.117Z,100987.31
2023-05-05T02:38:42.254Z,100985.75
2023-05-05T02:41:13.185Z,100989.03
2023-05-05T02:43:41.762Z,100998.25
2023-05-05T02:46:08.591Z,100995.53
2023-05-05T02:48:35.844Z,100999.75
2023-05-05T02:51:02.609Z,100998.78
2023-05-05T02:53:29.547Z,101000.03
2023-05-05T02:56:29.907Z,100999.19
2023-05-05T02:59:16.383Z,101003.09
2023-05-05T03:02:20.715Z,101009.47
2023-05-05T03:04:51.280Z,100999.81
2023-05-05T03:07:30.233Z,100999.25
2023-05-05T03:10:15.857Z,101004.28
2023-05-05T03:12:50.169Z,100992.69
2023-05-05T03:15:17.229Z,100994.88
2023-05-05T03:17:44.473Z,100992.34
2023-05-05T03:20:12.735Z,100993.31
2023-05-05T03:22:39.427Z,101001.50
2023-05-05T03:25:06.527Z,100995.53
2023-05-05T03:27:33.213Z,100999.09
2023-05-05T03:29:59.927Z,101002.00
2023-05-05T03:32:27.323Z,101002.97
2023-05-05T03:34:54.018Z,100993.72
2023-05-05T03:37:20.695Z,100992.88
2023-05-05T03:39:47.340Z,100990.03
2023-05-05T03:42:14.062Z,100994.94
2023-05-05T03:44:40.889Z,100995.09
2023-05-05T03:47:07.542Z,100998.63
2023-05-05T03:49:34.219Z,100997.06
2023-05-05T03:52:00.942Z,100996.72
2023-05-05T03:54:27.628Z,100994.28
2023-05-05T03:56:54.331Z,101000.03
2023-05-05T03:59:21.046Z,100998.44
2023-05-05T04:01:49.216Z,101007.34
2023-05-05T04:04:16.676Z,101008.31
2023-05-05T04:06:43.401Z,101012.59
2023-05-05T04:09:10.096Z,101006.13
2023-05-05T04:11:36.781Z,101014.28
2023-05-05T04:14:03.466Z,101025.03
2023-05-05T04:16:31.230Z,101032.94
2023-05-05T04:18:58.140Z,101031.38
2023-05-05T04:21:24.821Z,101034.44
2023-05-05T04:23:51.473Z,101044.41
2023-05-05T04:26:18.207Z,101042.81
2023-05-05T04:28:45.169Z,101039.66
2023-05-05T04:31:11.951Z,101045.03
2023-05-05T04:33:38.657Z,101051.50
2023-05-05T04:36:05.497Z,101045.50
2023-05-05T04:38:32.383Z,101053.56
2023-05-05T04:41:00.154Z,101051.84
2023-05-05T04:43:26.838Z,101053.94
2023-05-05T04:45:54.874Z,101051.94
2023-05-05T04:48:21.646Z,101058.06
2023-05-05T04:50:48.319Z,101059.13
2023-05-05T04:53:15.014Z,101068.88
2023-05-05T04:55:41.695Z,101073.28
2023-05-05T04:58:08.398Z,101074.88
2023-05-05T05:00:37.151Z,101060.47
2023-05-05T05:03:04.519Z,101072.91
2023-05-05T05:05:31.332Z,101077.56
2023-05-05T05:07:58.064Z,101066.69
2023-05-05T05:10:24.727Z,101075.47
2023-05-05T05:12:51.473Z,101081.56
2023-05-05T05:15:18.332Z,101073.28
2023-05-05T05:17:45.040Z,101082.16
2023-05-05T05:20:11.958Z,101081.53
2023-05-05T05:22:39.067Z,101089.47
2023-05-05T05:25:06.256Z,101095.94
2023-05-05T05:27:33.011Z,101087.41
2023-05-05T05:29:59.799Z,101095.34
2023-05-05T05:32:26.594Z,101092.03
2023-05-05T05:34:53.327Z,101098.38
2023-05-05T05:37:20.047Z,101091.31
2023-05-05T05:39:52.968Z,101099.59
2023-05-05T05:42:19.647Z,101094.72
2023-05-05T05:44:51.324Z,101104.94
2023-05-05T05:47:18.016Z,101105.31
2023-05-05T05:49:44.782Z,101106.56
2023-05-05T05:52:11.557Z,101107.63
2023-05-05T05:54:38.239Z,101113.00
2023-05-05T05:57:04.990Z,101095.81
2023-05-05T05:59:31.818Z,101093.75
2023-05-05T06:01:59.019Z,101095.22
2023-05-05T06:04:25.858Z,101100.94
2023-05-05T06:06:52.563Z,101098.00
2023-05-05T06:09:19.216Z,101102.53
2023-05-05T06:11:45.914Z,101097.44
2023-05-05T06:14:12.630Z,101098.66
2023-05-05T06:16:39.325Z,101104.50
2023-05-05T06:19:09.865Z,101104.13
2023-05-05T06:21:37.043Z,101107.78
2023-05-05T06:24:04.042Z,101100.56
2023-05-05T06:26:31.637Z,101108.84
2023-05-05T06:28:58.326Z,101095.84
2023-05-05T06:31:25.287Z,101097.88
2023-05-05T06:33:52.008Z,101103.75
2023-05-05T06:36:18.793Z,101093.16
2023-05-05T06:38:45.592Z,101093.25
2023-05-05T06:41:12.290Z,101091.78
2023-05-05T06:43:39.844Z,101098.47
2023-05-05T06:46:06.646Z,101110.78
2023-05-05T06:48:33.291Z,101113.34
2023-05-05T06:51:00.022Z,101116.50
2023-05-05T06:53:26.794Z,101120.38
2023-05-05T06:55:53.539Z,101125.59
2023-05-05T06:58:21.392Z,101135.19
2023-05-05T07:00:48.108Z,101141.53
2023-05-05T07:03:15.068Z,101152.03
2023-05-05T07:05:42.298Z,101142.91
2023-05-05T07:08:09.296Z,101143.47
2023-05-05T07:10:35.976Z,101141.47
2023-05-05T07:13:02.759Z,101148.53
2023-05-05T07:15:29.883Z,101144.84
2023-05-05T07:17:57.128Z,101151.00
2023-05-05T07:20:24.551Z,101147.09
2023-05-05T07:22:51.546Z,101157.94
2023-05-05T07:25:18.388Z,101162.22
2023-05-05T07:27:45.182Z,101159.16
2023-05-05T07:30:16.356Z,101161.97
2023-05-05T07:32:44.234Z,101179.13
2023-05-05T07:35:11.020Z,101164.72
2023-05-05T07:37:37.780Z,101161.41
2023-05-05T07:40:04.993Z,101162.97
2023-05-05T07:42:31.798Z,101174.09
2023-05-05T07:44:58.518Z,101168.50
2023-05-05T07:47:25.407Z,101179.69
2023-05-05T07:49:52.126Z,101170.44
2023-05-05T07:52:20.286Z,101173.84
2023-05-05T07:54:49.861Z,101170.91
2023-05-05T07:57:16.768Z,101174.91
2023-05-05T07:59:44.161Z,101170.66
2023-05-05T08:02:12.918Z,101172.16
2023-05-05T08:04:43.713Z,101168.50
2023-05-05T08:07:10.842Z,101166.28
2023-05-05T08:09:38.160Z,101169.97
2023-05-05T08:12:05.370Z,101176.44
2023-05-05T08:14:32.860Z,101171.13
2023-05-05T08:16:59.571Z,101167.06
2023-05-05T08:19:29.161Z,101168.38
2023-05-05T08:21:56.597Z,101166.88
2023-05-05T08:24:23.266Z,101170.88
2023-05-05T08:26:50.087Z,101184.19
2023-05-05T08:29:16.864Z,101179.53
2023-05-05T08:31:44.805Z,101174.09
2023-05-05T08:34:11.674Z,101172.72
2023-05-05T08:36:38.384Z,101171.03
2023-05-05T08:39:05.122Z,101176.66
2023-05-05T08:41:33.311Z,101176.00
2023-05-05T08:44:00.478Z,101178.59
2023-05-05T08:46:28.487Z,101182.03
2023-05-05T08:48:55.754Z,101174.72
2023-05-05T08:51:23.057Z,101170.34
2023-05-05T08:53:56.095Z,101171.09
2023-05-05T08:56:26.996Z,101171.44
2023-05-05T08:58:54.615Z,101174.31
2023-05-05T09:01:21.494Z,101164.00
2023-05-05T09:03:48.586Z,101165.19
2023-05-05T09:06:23.673Z,101174.31
2023-05-05T09:08:50.902Z,101174.13
2023-05-05T09:11:17.755Z,101171.59
2023-05-05T09:13:44.694Z,101173.00
2023-05-05T09:16:11.756Z,101180.13
2023-05-05T09:18:41.277Z,101173.16
2023-05-05T09:21:25.038Z,101181.09
2023-05-05T09:24:12.437Z,101181.94
2023-05-05T09:26:44.682Z,101187.09
2023-05-05T09:29:18.850Z,101189.47
2023-05-05T09:31:47.115Z,101188.47
2023-05-05T09:34:17.438Z,101183.69
2023-05-05T09:36:48.175Z,101175.75
2023-05-05T09:39:20.745Z,101172.09
2023-05-05T09:41:47.609Z,101177.38
2023-05-05T09:44:17.245Z,101184.97
2023-05-05T09:46:51.751Z,101182.63
2023-05-05T09:49:23.085Z,101181.50
2023-05-05T09:51:49.875Z,101179.66
2023-05-05T09:54:27.754Z,101173.94
2023-05-05T09:56:55.718Z,101183.28
2023-05-05T09:59:22.781Z,101175.88
2023-05-05T10:01:50.991Z,101167.22
2023-05-05T10:04:31.631Z,101159.44
2023-05-05T10:07:03.526Z,101162.41
2023-05-05T10:09:31.911Z,101174.84
2023-05-05T10:12:00.599Z,101169.84
2023-05-05T10:14:27.786Z,101165.81
2023-05-05T10:17:04.470Z,101162.56
2023-05-05T10:19:32.678Z,101156.47
2023-05-05T10:22:03.486Z,101146.16
2023-05-05T10:24:42.014Z,101135.25
2023-05-05T10:27:20.776Z,101150.03
2023-05-05T10:30:09.269Z,101141.00
2023-05-05T10:33:00.583Z,101139.78
2023-05-05T10:35:37.812Z,101137.47
2023-05-05T10:38:09.129Z,101130.47
2023-05-05T10:40:35.989Z,101132.53
2023-05-05T10:43:02.692Z,101135.09
2023-05-05T10:45:29.528Z,101128.78
2023-05-05T10:47:59.423Z,101129.16
2023-05-05T10:50:30.372Z,101119.97
2023-05-05T10:53:39.283Z,101113.66
2023-05-05T10:56:15.592Z,101108.72
2023-05-05T10:58:58.409Z,101110.16
2023-05-05T11:01:34.212Z,101106.28
2023-05-05T11:04:20.470Z,101094.09
2023-05-05T11:07:12.477Z,101102.34
2023-05-05T11:10:03.577Z,101113.50
2023-05-05T11:12:31.615Z,101109.03
2023-05-05T11:15:26.571Z,101106.19
2023-05-05T11:17:56.861Z,101100.78
2023-05-05T11:20:43.764Z,101098.97
2023-05-05T11:23:10.472Z,101095.28
2023-05-05T11:25:38.178Z,101087.16
2023-05-05T11:28:08.689Z,101090.72
2023-05-05T11:30:36.466Z,101089.97
2023-05-05T11:33:39.049Z,101089.81
2023-05-05T11:36:38.816Z,101090.94
2023-05-05T11:39:05.827Z,101080.53
2023-05-05T11:41:32.649Z,101086.19
2023-05-05T11:44:09.808Z,101084.91
2023-05-05T11:46:36.821Z,101092.03
2023-05-05T11:49:03.781Z,101091.75
2023-05-05T11:51:31.244Z,101083.69
2023-05-05T11:53:59.131Z,101086.34
2023-05-05T11:56:26.434Z,101089.34
2023-05-05T11:59:11.125Z,101093.03
2023-05-05T12:01:41.719Z,101117.28
2023-05-05T12:04:14.931Z,101114.16
2023-05-05T12:06:42.323Z,101115.81
2023-05-05T12:09:19.922Z,101100.03
2023-05-05T12:11:57.368Z,101111.66
2023-05-05T12:14:25.168Z,101113.50
2023-05-05T12:16:58.398Z,101126.63
2023-05-05T12:19:30.277Z,101114.16
2023-05-05T12:21:57.191Z,101110.44
2023-05-05T12:24:24.135Z,101119.16
2023-05-05T12:26:50.820Z,101113.13
2023-05-05T12:29:25.302Z,101114.72
2023-05-05T12:31:52.126Z,101114.59
2023-05-05T12:34:24.980Z,101119.78
2023-05-05T12:36:51.981Z,101106.19
2023-05-05T12:39:18.927Z,101100.38
2023-05-05T12:41:45.737Z,101102.97
2023-05-05T12:44:12.535Z,101111.88
2023-05-05T12:46:46.574Z,101112.56
2023-05-05T12:49:13.306Z,101106.88
2023-05-05T12:51:53.031Z,101105.16
2023-05-05T12:54:19.808Z,101103.41
2023-05-05T12:56:47.856Z,101112.09
2023-05-05T12:59:24.228Z,101120.19
2023-05-05T13:01:52.701Z,101112.22
2023-05-05T13:04:21.152Z,101105.41
2023-05-05T13:06:49.602Z,101098.63
2023-05-05T13:09:27.123Z,101094.81
2023-05-05T13:11:54.873Z,101085.31
2023-05-05T13:14:21.773Z,101083.59
2023-05-05T13:16:48.593Z,101097.28
2023-05-05T13:19:15.581Z,101088.50
2023-05-05T13:21:42.449Z,101101.84
2023-05-05T13:24:25.397Z,101098.41
2023-05-05T13:26:56.740Z,101097.50
2023-05-05T13:29:26.122Z,101100.03
2023-05-05T13:31:55.166Z,101094.38
2023-05-05T13:34:21.871Z,101096.25
2023-05-05T13:36:48.676Z,101097.50
2023-05-05T13:39:15.396Z,101084.34
2023-05-05T13:41:42.134Z,101087.84
2023-05-05T13:44:08.951Z,101079.50
2023-05-05T13:46:35.658Z,101077.09
2023-05-05T13:49:02.388Z,101074.09
2023-05-05T13:51:29.682Z,101059.94
2023-05-05T13:53:56.487Z,101070.91
2023-05-05T13:56:26.380Z,101077.56
2023-05-05T13:58:53.140Z,101073.47
2023-05-05T14:01:19.967Z,101069.50
2023-05-05T14:03:46.671Z,101071.34
2023-05-05T14:06:13.401Z,101068.19
2023-05-05T14:08:40.112Z,101078.41
2023-05-05T14:11:08.229Z,101075.84
2023-05-05T14:13:34.954Z,101077.81
2023-05-05T14:16:01.672Z,101075.97
2023-05-05T14:18:28.588Z,101090.97
2023-05-05T14:20:55.316Z,101087.94
2023-05-05T14:23:21.979Z,101097.41
2023-05-05T14:25:48.780Z,101103.81
2023-05-05T14:28:15.498Z,101113.78
2023-05-05T14:30:42.154Z,101132.91
2023-05-05T14:33:08.918Z,101122.00
2023-05-05T14:35:35.900Z,101108.75
2023-05-05T14:38:02.623Z,101098.88
2023-05-05T14:40:30.452Z,101108.75
2023-05-05T14:42:57.936Z,101122.53
2023-05-05T14:45:24.648Z,101131.53
2023-05-05T14:47:51.445Z,101152.56
2023-05-05T14:50:18.203Z,101128.75
2023-05-05T14:52:44.965Z,101130.56
2023-05-05T14:55:12.107Z,101126.78
2023-05-05T14:57:41.112Z,101126.88
2023-05-05T15:00:08.424Z,101132.00
2023-05-05T15:02:35.490Z,101129.34
2023-05-05T15:05:02.568Z,101132.28
2023-05-05T15:07:29.649Z,101127.00
2023-05-05T15:09:59.200Z,101125.69
2023-05-05T15:12:26.240Z,101122.13
2023-05-05T15:14:53.128Z,101144.34
2023-05-05T15:17:20.198Z,101147.31
2023-05-05T15:19:47.087Z,101140.38
2023-05-05T15:22:13.814Z,101151.94
2023-05-05T15:24:40.714Z,101154.41
2023-05-05T15:27:07.533Z,101152.09
2023-05-05T15:29:34.362Z,101158.09
2023-05-05T15:32:01.435Z,101160.19
2023-05-05T15:34:28.248Z,101156.31
2023-05-05T15:36:56.249Z,101170.47
2023-05-05T15:39:23.051Z,101166.03
2023-05-05T15:41:49.732Z,101165.16
2023-05-05T15:44:16.615Z,101167.06
2023-05-05T15:46:43.364Z,101171.47
2023-05-05T15:49:10.882Z,101166.66
2023-05-05T15:51:37.624Z,101168.53
2023-05-05T15:54:04.566Z,101179.59
2023-05-05T15:56:31.358Z,101175.91
2023-05-05T15:58:58.150Z,101163.25
2023-05-05T16:01:24.902Z,101164.41
2023-05-05T16:03:52.059Z,101158.91
2023-05-05T16:06:18.779Z,101171.78
2023-05-05T16:08:47.889Z,101161.44
2023-05-05T16:11:14.702Z,101154.34
2023-05-05T16:13:42.701Z,101160.97
2023-05-05T16:16:09.517Z,101151.78
2023-05-05T16:18:36.435Z,101145.78
2023-05-05T16:21:03.272Z,101134.66
2023-05-05T16:23:30.052Z,101140.06
2023-05-05T16:25:56.916Z,101132.25
2023-05-05T16:28:23.568Z,101122.19
2023-05-05T16:30:50.290Z,101133.91
2023-05-05T16:33:17.002Z,101129.63
2023-05-05T16:35:45.794Z,101127.81
2023-05-05T16:38:12.752Z,101130.13
2023-05-05T16:40:39.670Z,101131.25
2023-05-05T16:43:06.508Z,101126.59
2023-05-05T16:45:33.198Z,101134.16
2023-05-05T16:47:59.928Z,101131.63
2023-05-05T16:50:27.021Z,101134.16
2023-05-05T16:52:53.857Z,101131.25
2023-05-05T16:55:20.844Z,101131.84
2023-05-05T16:57:48.142Z,101137.25
2023-05-05T17:00:15.693Z,101134.56
2023-05-05T17:02:42.548Z,101132.16
2023-05-05T17:05:09.984Z,101133.63
2023-05-05T17:07:37.023Z,101129.84
2023-05-05T17:10:04.008Z,101129.63
2023-05-05T17:12:30.893Z,101118.69
2023-05-05T17:15:00.274Z,101129.75
2023-05-05T17:17:27.028Z,101119.88
2023-05-05T17:19:53.860Z,101133.25
2023-05-05T17:22:20.705Z,101142.25
2023-05-05T17:24:47.436Z,101145.09
2023-05-05T17:27:14.265Z,101150.09
2023-05-05T17:29:41.457Z,101145.97
2023-05-05T17:32:09.098Z,101148.16
2023-05-05T17:34:36.188Z,101153.84
2023-05-05T17:37:09.975Z,101143.00
2023-05-05T17:39:36.668Z,101140.91
2023-05-05T17:42:11.764Z,101148.56
2023-05-05T17:44:38.435Z,101151.88
2023-05-05T17:47:07.863Z,101156.25
2023-05-05T17:49:35.011Z,101156.59
2023-05-05T17:52:02.109Z,101159.50
2023-05-05T17:54:28.888Z,101161.09
2023-05-05T17:56:55.674Z,101167.28
2023-05-05T17:59:22.443Z,101166.84
2023-05-05T18:01:49.261Z,101156.00
2023-05-05T18:04:16.216Z,101151.22
2023-05-05T18:06:42.925Z,101153.41
2023-05-05T18:09:11.288Z,101158.66
2023-05-05T18:11:38.272Z,101161.56
2023-05-05T18:14:05.166Z,101151.50
2023-05-05T18:16:32.577Z,101151.47
2023-05-05T18:18:59.495Z,101156.94
2023-05-05T18:21:26.278Z,101157.03
2023-05-05T18:23:57.246Z,101157.78
2023-05-05T18:26:28.718Z,101157.16
2023-05-05T18:28:55.432Z,101157.94
2023-05-05T18:31:22.452Z,101159.38
2023-05-05T18:33:49.158Z,101165.72
2023-05-05T18:36:16.260Z,101163.47
2023-05-05T18:38:42.996Z,101166.16
2023-05-05T18:41:09.761Z,101158.69
2023-05-05T18:43:36.507Z,101158.59
2023-05-05T18:46:03.353Z,101162.66
2023-05-05T18:48:30.740Z,101162.00
2023-05-05T18:51:04.724Z,101151.44
2023-05-05T18:53:36.859Z,101153.88
2023-05-05T18:56:03.603Z,101161.69
2023-05-05T18:58:30.791Z,101164.38
2023-05-05T19:00:57.769Z,101162.34
2023-05-05T19:03:24.514Z,101163.72
2023-05-05T19:05:51.338Z,101164.28
2023-05-05T19:08:24.004Z,101156.94
2023-05-05T19:10:50.776Z,101158.50
2023-05-05T19:13:17.625Z,101165.16
2023-05-05T19:15:44.890Z,101156.72
2023-05-05T19:18:14.525Z,101161.75
2023-05-05T19:20:43.093Z,101164.22
2023-05-05T19:23:10.116Z,101179.72
2023-05-05T19:25:37.132Z,101178.66
2023-05-05T19:28:04.090Z,101177.91
2023-05-05T19:30:31.455Z,101184.09
2023-05-05T19:32:58.299Z,101191.72
2023-05-05T19:35:25.044Z,101190.09
2023-05-05T19:37:51.753Z,101196.94
2023-05-05T19:40:18.459Z,101202.59
2023-05-05T19:42:45.122Z,101207.84
2023-05-05T19:45:11.824Z,101206.56
2023-05-05T19:47:38.694Z,101207.00
2023-05-05T19:50:05.951Z,101206.47
2023-05-05T19:52:32.717Z,101201.13
2023-05-05T19:54:59.451Z,101202.94
2023-05-05T19:57:26.508Z,101205.84
2023-05-05T19:59:53.283Z,101202.41
2023-05-05T20:02:22.156Z,101204.22
2023-05-05T20:04:49.769Z,101201.22
2023-05-05T20:07:18.126Z,101213.09
2023-05-05T20:09:45.136Z,101206.78
2023-05-05T20:12:12.403Z,101200.16
2023-05-05T20:14:39.141Z,101200.69
2023-05-05T20:17:05.834Z,101196.28
2023-05-05T20:19:32.594Z,101195.34
2023-05-05T20:21:59.462Z,101199.31
2023-05-05T20:24:26.410Z,101192.69
2023-05-05T20:26:53.211Z,101198.13
2023-05-05T20:29:20.555Z,101198.66
2023-05-05T20:31:48.325Z,101190.72
2023-05-05T20:34:15.229Z,101192.53
2023-05-05T20:36:42.074Z,101196.50
2023-05-05T20:39:08.892Z,101200.97
2023-05-05T20:41:36.854Z,101192.97
2023-05-05T20:44:03.650Z,101191.34
2023-05-05T20:46:30.431Z,101192.00
2023-05-05T20:48:57.106Z,101187.84
2023-05-05T20:51:23.969Z,101184.31
2023-05-05T20:53:50.872Z,101192.00
2023-05-05T20:56:17.525Z,101189.41
2023-05-05T20:58:44.212Z,101187.41
2023-05-05T21:01:12.113Z,101189.75
2023-05-05T21:03:38.973Z,101181.31
2023-05-05T21:06:06.058Z,101190.09
2023-05-05T21:08:32.909Z,101186.34
2023-05-05T21:10:59.657Z,101187.09
2023-05-05T21:13:26.459Z,101189.25
2023-05-05T21:15:53.250Z,101193.06
2023-05-05T21:18:20.316Z,101193.38
2023-05-05T21:20:47.064Z,101188.38
2023-05-05T21:23:13.854Z,101198.09
2023-05-05T21:25:40.842Z,101192.94
2023-05-05T21:28:07.557Z,101192.91
2023-05-05T21:30:34.357Z,101190.38
2023-05-05T21:33:01.217Z,101202.03
2023-05-05T21:35:28.130Z,101189.94
2023-05-05T21:37:54.863Z,101192.50
2023-05-05T21:40:21.650Z,101189.53
2023-05-05T21:42:48.336Z,101196.47
2023-05-05T21:45:15.591Z,101189.63
2023-05-05T21:47:42.524Z,101197.63
2023-05-05T21:50:10.412Z,101203.38
2023-05-05T21:52:37.427Z,101205.31
2023-05-05T21:55:04.456Z,101192.91
2023-05-05T21:57:31.166Z,101188.41
2023-05-05T21:59:57.811Z,101191.94
2023-05-05T22:02:24.713Z,101196.88
2023-05-05T22:04:51.842Z,101196.44
2023-05-05T22:07:18.553Z,101190.03
2023-05-05T22:09:46.199Z,101191.09
2023-05-05T22:12:13.350Z,101191.50
2023-05-05T22:14:40.221Z,101186.06
2023-05-05T22:17:07.000Z,101187.75
2023-05-05T22:19:33.678Z,101188.66
2023-05-05T22:22:00.460Z,101192.91
2023-05-05T22:24:27.147Z,101198.16
2023-05-05T22:26:54.226Z,101187.06
2023-05-05T22:29:21.503Z,101195.63
2023-05-05T22:31:48.454Z,101196.25
2023-05-05T22:34:16.124Z,101195.09
2023-05-05T22:36:42.956Z,101205.53
2023-05-05T22:39:09.734Z,101199.16
2023-05-05T22:41:36.378Z,101202.31
2023-05-05T22:44:03.166Z,101203.88
2023-05-05T22:46:29.966Z,101201.63
2023-05-05T22:48:56.820Z,101199.19
2023-05-05T22:51:23.929Z,101198.84
2023-05-05T22:53:51.294Z,101196.38
2023-05-05T22:56:18.132Z,101194.72
2023-05-05T22:58:46.694Z,101187.81
2023-05-05T23:01:13.454Z,101192.47
2023-05-05T23:03:40.155Z,101188.00
2023-05-05T23:06:07.035Z,101193.25
2023-05-05T23:08:33.955Z,101191.19
2023-05-05T23:11:01.015Z,101187.84
2023-05-05T23:13:27.710Z,101192.03
2023-05-05T23:15:54.451Z,101192.88
2023-05-05T23:18:21.132Z,101193.34
2023-05-05T23:20:47.875Z,101191.84
2023-05-05T23:23:14.729Z,101192.44
2023-05-05T23:25:41.447Z,101193.41
2023-05-05T23:28:08.360Z,101193.41
2023-05-05T23:30:35.111Z,101196.56
2023-05-05T23:33:02.974Z,101194.00
2023-05-05T23:35:30.162Z,101191.31
2023-05-05T23:37:57.369Z,101207.31
2023-05-05T23:40:24.190Z,101202.72
2023-05-05T23:42:50.882Z,101205.22
2023-05-05T23:45:19.326Z,101205.59
2023-05-05T23:47:46.381Z,101204.56
2023-05-05T23:50:13.060Z,101204.81
2023-05-05T23:52:39.803Z,101201.50
2023-05-05T23:55:07.321Z,101196.66
2023-05-05T23:57:35.648Z,101198.25
